sensor_id;sensor_type;location;lat;lon;timestamp;P1;durP1;ratioP1;P2;durP2;ratioP2
65187;SDS011;51775;51.148;6.950;2023-11-18T00:00:38;5.55;;;3.63;;
65187;SDS011;51775;51.148;6.950;2023-11-18T00:03:03;4.97;;;3.55;;
65187;SDS011;51775;51.148;6.950;2023-11-18T00:05:29;4.88;;;3.42;;
65187;SDS011;51775;51.148;6.950;2023-11-18T00:07:54;4.57;;;3.40;;
65187;SDS011;51775;51.148;6.950;2023-11-18T00:10:19;4.95;;;3.42;;
65187;SDS011;51775;51.148;6.950;2023-11-18T00:12:44;5.07;;;3.70;;
65187;SDS011;51775;51.148;6.950;2023-11-18T00:15:10;5.18;;;3.45;;
65187;SDS011;51775;51.148;6.950;2023-11-18T00:17:35;4.40;;;3.30;;
65187;SDS011;51775;51.148;6.950;2023-11-18T00:20:00;4.53;;;3.38;;
65187;SDS011;51775;51.148;6.950;2023-11-18T00:22:26;4.40;;;3.38;;
65187;SDS011;51775;51.148;6.950;2023-11-18T00:24:51;4.82;;;3.45;;
65187;SDS011;51775;51.148;6.950;2023-11-18T00:27:16;4.93;;;3.60;;
65187;SDS011;51775;51.148;6.950;2023-11-18T00:29:42;4.68;;;3.40;;
65187;SDS011;51775;51.148;6.950;2023-11-18T00:32:07;4.55;;;3.38;;
65187;SDS011;51775;51.148;6.950;2023-11-18T00:34:33;4.35;;;3.30;;
65187;SDS011;51775;51.148;6.950;2023-11-18T00:36:58;4.70;;;3.25;;
65187;SDS011;51775;51.148;6.950;2023-11-18T00:39:24;4.20;;;3.15;;
65187;SDS011;51775;51.148;6.950;2023-11-18T00:41:49;4.10;;;3.10;;
65187;SDS011;51775;51.148;6.950;2023-11-18T00:44:15;4.28;;;3.10;;
65187;SDS011;51775;51.148;6.950;2023-11-18T00:46:40;4.53;;;3.03;;
65187;SDS011;51775;51.148;6.950;2023-11-18T00:49:06;4.25;;;3.10;;
65187;SDS011;51775;51.148;6.950;2023-11-18T00:51:31;4.70;;;3.40;;
65187;SDS011;51775;51.148;6.950;2023-11-18T00:53:56;4.35;;;3.08;;
65187;SDS011;51775;51.148;6.950;2023-11-18T00:56:22;4.90;;;3.38;;
65187;SDS011;51775;51.148;6.950;2023-11-18T00:58:48;5.03;;;3.10;;
65187;SDS011;51775;51.148;6.950;2023-11-18T01:01:13;4.25;;;3.03;;
65187;SDS011;51775;51.148;6.950;2023-11-18T01:03:39;4.20;;;2.95;;
65187;SDS011;51775;51.148;6.950;2023-11-18T01:06:04;4.25;;;2.90;;
65187;SDS011;51775;51.148;6.950;2023-11-18T01:08:29;3.90;;;2.80;;
65187;SDS011;51775;51.148;6.950;2023-11-18T01:10:55;4.40;;;3.10;;
65187;SDS011;51775;51.148;6.950;2023-11-18T01:13:20;4.00;;;2.80;;
65187;SDS011;51775;51.148;6.950;2023-11-18T01:15:45;4.20;;;3.08;;
65187;SDS011;51775;51.148;6.950;2023-11-18T01:18:11;4.25;;;2.95;;
65187;SDS011;51775;51.148;6.950;2023-11-18T01:20:36;4.72;;;2.80;;
65187;SDS011;51775;51.148;6.950;2023-11-18T01:23:02;4.38;;;3.10;;
65187;SDS011;51775;51.148;6.950;2023-11-18T01:25:27;6.28;;;3.05;;
65187;SDS011;51775;51.148;6.950;2023-11-18T01:27:52;4.22;;;2.83;;
65187;SDS011;51775;51.148;6.950;2023-11-18T01:30:17;4.20;;;2.88;;
65187;SDS011;51775;51.148;6.950;2023-11-18T01:32:43;5.45;;;3.17;;
65187;SDS011;51775;51.148;6.950;2023-11-18T01:35:08;5.00;;;3.00;;
65187;SDS011;51775;51.148;6.950;2023-11-18T01:37:34;8.25;;;3.00;;
65187;SDS011;51775;51.148;6.950;2023-11-18T01:39:59;4.80;;;3.13;;
65187;SDS011;51775;51.148;6.950;2023-11-18T01:42:24;4.47;;;3.13;;
65187;SDS011;51775;51.148;6.950;2023-11-18T01:44:50;4.07;;;2.88;;
65187;SDS011;51775;51.148;6.950;2023-11-18T01:47:15;4.05;;;2.83;;
65187;SDS011;51775;51.148;6.950;2023-11-18T01:49:40;5.80;;;3.10;;
65187;SDS011;51775;51.148;6.950;2023-11-18T01:52:06;4.40;;;2.88;;
65187;SDS011;51775;51.148;6.950;2023-11-18T01:54:32;4.38;;;3.13;;
65187;SDS011;51775;51.148;6.950;2023-11-18T01:56:57;5.55;;;2.90;;
65187;SDS011;51775;51.148;6.950;2023-11-18T01:59:23;4.30;;;3.00;;
65187;SDS011;51775;51.148;6.950;2023-11-18T02:01:49;4.70;;;3.17;;
65187;SDS011;51775;51.148;6.950;2023-11-18T02:04:15;5.00;;;3.15;;
65187;SDS011;51775;51.148;6.950;2023-11-18T02:06:41;4.50;;;3.03;;
65187;SDS011;51775;51.148;6.950;2023-11-18T02:09:07;4.35;;;3.00;;
65187;SDS011;51775;51.148;6.950;2023-11-18T02:16:45;5.07;;;3.03;;
65187;SDS011;51775;51.148;6.950;2023-11-18T02:19:20;4.55;;;2.80;;
65187;SDS011;51775;51.148;6.950;2023-11-18T02:21:47;4.22;;;3.00;;
65187;SDS011;51775;51.148;6.950;2023-11-18T02:24:29;4.95;;;3.03;;
65187;SDS011;51775;51.148;6.950;2023-11-18T02:26:59;3.97;;;2.80;;
65187;SDS011;51775;51.148;6.950;2023-11-18T02:29:25;4.05;;;2.90;;
65187;SDS011;51775;51.148;6.950;2023-11-18T02:31:56;3.75;;;2.80;;
65187;SDS011;51775;51.148;6.950;2023-11-18T02:34:25;3.72;;;2.72;;
65187;SDS011;51775;51.148;6.950;2023-11-18T02:36:53;3.75;;;2.60;;
65187;SDS011;51775;51.148;6.950;2023-11-18T02:39:25;4.30;;;2.90;;
65187;SDS011;51775;51.148;6.950;2023-11-18T02:41:55;4.40;;;2.83;;
65187;SDS011;51775;51.148;6.950;2023-11-18T02:44:23;4.20;;;2.55;;
65187;SDS011;51775;51.148;6.950;2023-11-18T02:46:48;3.78;;;2.83;;
65187;SDS011;51775;51.148;6.950;2023-11-18T02:49:14;3.65;;;2.60;;
65187;SDS011;51775;51.148;6.950;2023-11-18T02:51:40;3.70;;;2.80;;
65187;SDS011;51775;51.148;6.950;2023-11-18T02:54:06;3.70;;;2.53;;
65187;SDS011;51775;51.148;6.950;2023-11-18T02:56:32;4.18;;;2.72;;
65187;SDS011;51775;51.148;6.950;2023-11-18T02:58:57;3.40;;;2.40;;
65187;SDS011;51775;51.148;6.950;2023-11-18T03:01:23;3.40;;;2.42;;
65187;SDS011;51775;51.148;6.950;2023-11-18T03:03:48;3.60;;;2.65;;
65187;SDS011;51775;51.148;6.950;2023-11-18T03:06:13;3.80;;;2.70;;
65187;SDS011;51775;51.148;6.950;2023-11-18T03:08:39;3.38;;;2.55;;
65187;SDS011;51775;51.148;6.950;2023-11-18T03:11:04;3.63;;;2.58;;
65187;SDS011;51775;51.148;6.950;2023-11-18T03:13:29;3.42;;;2.50;;
65187;SDS011;51775;51.148;6.950;2023-11-18T03:15:54;3.97;;;2.50;;
65187;SDS011;51775;51.148;6.950;2023-11-18T03:18:20;3.63;;;2.42;;
65187;SDS011;51775;51.148;6.950;2023-11-18T03:20:45;3.20;;;2.40;;
65187;SDS011;51775;51.148;6.950;2023-11-18T03:23:10;3.92;;;2.53;;
65187;SDS011;51775;51.148;6.950;2023-11-18T03:25:36;3.30;;;2.55;;
65187;SDS011;51775;51.148;6.950;2023-11-18T03:28:01;4.13;;;2.30;;
65187;SDS011;51775;51.148;6.950;2023-11-18T03:30:26;3.45;;;2.28;;
65187;SDS011;51775;51.148;6.950;2023-11-18T03:32:51;3.10;;;2.33;;
65187;SDS011;51775;51.148;6.950;2023-11-18T03:35:17;3.95;;;2.40;;
65187;SDS011;51775;51.148;6.950;2023-11-18T03:37:42;3.53;;;2.40;;
65187;SDS011;51775;51.148;6.950;2023-11-18T03:40:08;3.60;;;2.33;;
65187;SDS011;51775;51.148;6.950;2023-11-18T03:42:37;3.53;;;2.40;;
65187;SDS011;51775;51.148;6.950;2023-11-18T03:45:03;4.75;;;2.53;;
65187;SDS011;51775;51.148;6.950;2023-11-18T03:47:29;3.47;;;2.40;;
65187;SDS011;51775;51.148;6.950;2023-11-18T03:49:54;3.72;;;2.50;;
65187;SDS011;51775;51.148;6.950;2023-11-18T03:52:19;3.65;;;2.50;;
65187;SDS011;51775;51.148;6.950;2023-11-18T03:54:45;3.40;;;2.45;;
65187;SDS011;51775;51.148;6.950;2023-11-18T03:57:10;2.80;;;2.05;;
65187;SDS011;51775;51.148;6.950;2023-11-18T03:59:36;3.30;;;2.40;;
65187;SDS011;51775;51.148;6.950;2023-11-18T04:02:01;3.10;;;2.17;;
65187;SDS011;51775;51.148;6.950;2023-11-18T04:04:26;2.90;;;2.17;;
65187;SDS011;51775;51.148;6.950;2023-11-18T04:06:51;3.75;;;2.47;;
65187;SDS011;51775;51.148;6.950;2023-11-18T04:09:17;2.80;;;1.98;;
65187;SDS011;51775;51.148;6.950;2023-11-18T04:11:42;3.10;;;1.90;;
65187;SDS011;51775;51.148;6.950;2023-11-18T04:14:07;3.90;;;2.38;;
65187;SDS011;51775;51.148;6.950;2023-11-18T04:16:32;3.35;;;2.30;;
65187;SDS011;51775;51.148;6.950;2023-11-18T04:18:58;3.38;;;2.20;;
65187;SDS011;51775;51.148;6.950;2023-11-18T04:21:23;3.20;;;2.20;;
65187;SDS011;51775;51.148;6.950;2023-11-18T04:23:48;3.50;;;2.10;;
65187;SDS011;51775;51.148;6.950;2023-11-18T04:26:13;2.92;;;2.00;;
65187;SDS011;51775;51.148;6.950;2023-11-18T04:28:39;2.95;;;1.90;;
65187;SDS011;51775;51.148;6.950;2023-11-18T04:31:04;3.00;;;2.30;;
65187;SDS011;51775;51.148;6.950;2023-11-18T04:33:30;2.88;;;2.08;;
65187;SDS011;51775;51.148;6.950;2023-11-18T04:35:55;3.15;;;2.17;;
65187;SDS011;51775;51.148;6.950;2023-11-18T04:38:21;3.13;;;2.15;;
65187;SDS011;51775;51.148;6.950;2023-11-18T04:40:46;2.67;;;1.88;;
65187;SDS011;51775;51.148;6.950;2023-11-18T04:43:12;2.90;;;2.00;;
65187;SDS011;51775;51.148;6.950;2023-11-18T04:45:37;3.00;;;2.03;;
65187;SDS011;51775;51.148;6.950;2023-11-18T04:48:03;3.00;;;2.00;;
65187;SDS011;51775;51.148;6.950;2023-11-18T04:50:29;2.80;;;2.00;;
65187;SDS011;51775;51.148;6.950;2023-11-18T04:52:54;3.00;;;2.08;;
65187;SDS011;51775;51.148;6.950;2023-11-18T04:55:20;3.13;;;2.03;;
65187;SDS011;51775;51.148;6.950;2023-11-18T04:57:45;3.42;;;2.25;;
65187;SDS011;51775;51.148;6.950;2023-11-18T05:00:10;2.97;;;1.88;;
65187;SDS011;51775;51.148;6.950;2023-11-18T05:02:39;3.13;;;2.20;;
65187;SDS011;51775;51.148;6.950;2023-11-18T05:05:05;2.90;;;1.90;;
65187;SDS011;51775;51.148;6.950;2023-11-18T05:07:31;2.60;;;1.90;;
65187;SDS011;51775;51.148;6.950;2023-11-18T05:09:56;3.30;;;2.10;;
65187;SDS011;51775;51.148;6.950;2023-11-18T05:12:22;3.10;;;2.20;;
65187;SDS011;51775;51.148;6.950;2023-11-18T05:14:47;2.90;;;1.92;;
65187;SDS011;51775;51.148;6.950;2023-11-18T05:17:12;2.70;;;1.83;;
65187;SDS011;51775;51.148;6.950;2023-11-18T05:19:37;2.85;;;2.05;;
65187;SDS011;51775;51.148;6.950;2023-11-18T05:22:03;3.00;;;2.00;;
65187;SDS011;51775;51.148;6.950;2023-11-18T05:24:28;2.80;;;2.00;;
65187;SDS011;51775;51.148;6.950;2023-11-18T05:26:53;2.90;;;2.00;;
65187;SDS011;51775;51.148;6.950;2023-11-18T05:29:19;2.67;;;1.90;;
65187;SDS011;51775;51.148;6.950;2023-11-18T05:31:44;2.90;;;2.00;;
65187;SDS011;51775;51.148;6.950;2023-11-18T05:34:09;2.67;;;1.90;;
65187;SDS011;51775;51.148;6.950;2023-11-18T05:36:35;3.08;;;2.00;;
65187;SDS011;51775;51.148;6.950;2023-11-18T05:39:00;2.50;;;1.80;;
65187;SDS011;51775;51.148;6.950;2023-11-18T05:41:25;2.70;;;1.90;;
65187;SDS011;51775;51.148;6.950;2023-11-18T05:43:50;2.83;;;2.00;;
65187;SDS011;51775;51.148;6.950;2023-11-18T05:46:16;2.67;;;1.77;;
65187;SDS011;51775;51.148;6.950;2023-11-18T05:48:44;2.78;;;2.03;;
65187;SDS011;51775;51.148;6.950;2023-11-18T05:51:10;2.88;;;1.95;;
65187;SDS011;51775;51.148;6.950;2023-11-18T05:53:42;3.05;;;2.15;;
65187;SDS011;51775;51.148;6.950;2023-11-18T05:56:08;2.85;;;1.70;;
65187;SDS011;51775;51.148;6.950;2023-11-18T05:58:33;2.90;;;2.08;;
65187;SDS011;51775;51.148;6.950;2023-11-18T06:00:59;2.60;;;1.90;;
65187;SDS011;51775;51.148;6.950;2023-11-18T06:03:24;2.88;;;1.83;;
65187;SDS011;51775;51.148;6.950;2023-11-18T06:05:49;3.33;;;2.20;;
65187;SDS011;51775;51.148;6.950;2023-11-18T06:08:15;2.78;;;2.00;;
65187;SDS011;51775;51.148;6.950;2023-11-18T06:10:40;2.80;;;2.05;;
65187;SDS011;51775;51.148;6.950;2023-11-18T06:13:05;2.80;;;1.70;;
65187;SDS011;51775;51.148;6.950;2023-11-18T06:15:31;2.65;;;1.90;;
65187;SDS011;51775;51.148;6.950;2023-11-18T06:17:56;2.78;;;2.00;;
65187;SDS011;51775;51.148;6.950;2023-11-18T06:20:21;2.80;;;1.77;;
65187;SDS011;51775;51.148;6.950;2023-11-18T06:22:46;3.17;;;2.20;;
65187;SDS011;51775;51.148;6.950;2023-11-18T06:25:12;2.40;;;1.90;;
65187;SDS011;51775;51.148;6.950;2023-11-18T06:27:37;2.42;;;1.70;;
65187;SDS011;51775;51.148;6.950;2023-11-18T06:30:02;2.63;;;2.00;;
65187;SDS011;51775;51.148;6.950;2023-11-18T06:32:28;2.90;;;2.00;;
65187;SDS011;51775;51.148;6.950;2023-11-18T06:34:53;3.35;;;2.20;;
65187;SDS011;51775;51.148;6.950;2023-11-18T06:37:19;2.58;;;1.90;;
65187;SDS011;51775;51.148;6.950;2023-11-18T06:39:44;3.08;;;1.95;;
65187;SDS011;51775;51.148;6.950;2023-11-18T06:42:10;3.00;;;1.80;;
65187;SDS011;51775;51.148;6.950;2023-11-18T06:44:35;2.78;;;1.90;;
65187;SDS011;51775;51.148;6.950;2023-11-18T06:47:00;2.70;;;1.80;;
65187;SDS011;51775;51.148;6.950;2023-11-18T06:49:25;3.20;;;1.98;;
65187;SDS011;51775;51.148;6.950;2023-11-18T06:51:51;2.63;;;1.80;;
65187;SDS011;51775;51.148;6.950;2023-11-18T06:54:16;2.70;;;2.00;;
65187;SDS011;51775;51.148;6.950;2023-11-18T06:56:42;2.90;;;1.80;;
65187;SDS011;51775;51.148;6.950;2023-11-18T06:59:08;2.60;;;1.83;;
65187;SDS011;51775;51.148;6.950;2023-11-18T07:01:34;2.90;;;1.80;;
65187;SDS011;51775;51.148;6.950;2023-11-18T07:03:59;2.70;;;1.90;;
65187;SDS011;51775;51.148;6.950;2023-11-18T07:06:25;2.40;;;1.70;;
65187;SDS011;51775;51.148;6.950;2023-11-18T07:08:50;2.42;;;1.70;;
65187;SDS011;51775;51.148;6.950;2023-11-18T07:11:16;2.38;;;1.80;;
65187;SDS011;51775;51.148;6.950;2023-11-18T07:13:42;3.17;;;2.10;;
65187;SDS011;51775;51.148;6.950;2023-11-18T07:16:08;2.60;;;1.80;;
65187;SDS011;51775;51.148;6.950;2023-11-18T07:18:33;2.42;;;1.70;;
65187;SDS011;51775;51.148;6.950;2023-11-18T07:20:59;2.50;;;1.90;;
65187;SDS011;51775;51.148;6.950;2023-11-18T07:23:24;2.35;;;1.60;;
65187;SDS011;51775;51.148;6.950;2023-11-18T07:25:49;2.72;;;1.90;;
65187;SDS011;51775;51.148;6.950;2023-11-18T07:28:15;2.10;;;1.60;;
65187;SDS011;51775;51.148;6.950;2023-11-18T07:30:43;2.90;;;1.88;;
65187;SDS011;51775;51.148;6.950;2023-11-18T07:33:08;2.70;;;1.88;;
65187;SDS011;51775;51.148;6.950;2023-11-18T07:35:34;2.60;;;1.80;;
65187;SDS011;51775;51.148;6.950;2023-11-18T07:37:59;3.15;;;1.90;;
65187;SDS011;51775;51.148;6.950;2023-11-18T07:40:25;2.42;;;1.88;;
65187;SDS011;51775;51.148;6.950;2023-11-18T07:42:50;2.80;;;1.80;;
65187;SDS011;51775;51.148;6.950;2023-11-18T07:45:15;2.00;;;1.50;;
65187;SDS011;51775;51.148;6.950;2023-11-18T07:47:41;2.28;;;1.70;;
65187;SDS011;51775;51.148;6.950;2023-11-18T07:50:06;2.33;;;1.70;;
65187;SDS011;51775;51.148;6.950;2023-11-18T07:52:32;2.65;;;1.70;;
65187;SDS011;51775;51.148;6.950;2023-11-18T07:54:57;2.45;;;1.75;;
65187;SDS011;51775;51.148;6.950;2023-11-18T07:57:22;2.20;;;1.58;;
65187;SDS011;51775;51.148;6.950;2023-11-18T07:59:47;2.28;;;1.52;;
65187;SDS011;51775;51.148;6.950;2023-11-18T08:02:13;3.00;;;2.10;;
65187;SDS011;51775;51.148;6.950;2023-11-18T08:04:38;3.90;;;1.90;;
65187;SDS011;51775;51.148;6.950;2023-11-18T08:07:03;3.00;;;1.80;;
65187;SDS011;51775;51.148;6.950;2023-11-18T08:09:28;2.42;;;1.60;;
65187;SDS011;51775;51.148;6.950;2023-11-18T08:11:54;2.80;;;1.70;;
65187;SDS011;51775;51.148;6.950;2023-11-18T08:14:19;2.33;;;1.58;;
65187;SDS011;51775;51.148;6.950;2023-11-18T08:16:44;2.45;;;1.75;;
65187;SDS011;51775;51.148;6.950;2023-11-18T08:19:10;2.17;;;1.45;;
65187;SDS011;51775;51.148;6.950;2023-11-18T08:21:35;2.22;;;1.60;;
65187;SDS011;51775;51.148;6.950;2023-11-18T08:24:00;2.22;;;1.50;;
65187;SDS011;51775;51.148;6.950;2023-11-18T08:26:25;2.42;;;1.70;;
65187;SDS011;51775;51.148;6.950;2023-11-18T08:28:51;2.55;;;1.65;;
65187;SDS011;51775;51.148;6.950;2023-11-18T08:31:16;2.70;;;1.50;;
65187;SDS011;51775;51.148;6.950;2023-11-18T08:33:42;2.33;;;1.48;;
65187;SDS011;51775;51.148;6.950;2023-11-18T08:36:07;2.20;;;1.48;;
65187;SDS011;51775;51.148;6.950;2023-11-18T08:38:33;2.38;;;1.60;;
65187;SDS011;51775;51.148;6.950;2023-11-18T08:40:58;3.35;;;1.50;;
65187;SDS011;51775;51.148;6.950;2023-11-18T08:43:24;2.35;;;1.50;;
65187;SDS011;51775;51.148;6.950;2023-11-18T08:45:49;2.15;;;1.25;;
65187;SDS011;51775;51.148;6.950;2023-11-18T08:48:14;2.25;;;1.60;;
65187;SDS011;51775;51.148;6.950;2023-11-18T08:50:39;2.03;;;1.38;;
65187;SDS011;51775;51.148;6.950;2023-11-18T08:53:05;3.38;;;1.60;;
65187;SDS011;51775;51.148;6.950;2023-11-18T08:55:31;2.28;;;1.50;;
65187;SDS011;51775;51.148;6.950;2023-11-18T08:57:57;2.60;;;1.70;;
65187;SDS011;51775;51.148;6.950;2023-11-18T09:00:23;2.30;;;1.52;;
65187;SDS011;51775;51.148;6.950;2023-11-18T09:02:49;2.80;;;1.80;;
65187;SDS011;51775;51.148;6.950;2023-11-18T09:05:14;2.25;;;1.60;;
65187;SDS011;51775;51.148;6.950;2023-11-18T09:07:39;2.50;;;1.63;;
65187;SDS011;51775;51.148;6.950;2023-11-18T09:10:05;2.67;;;1.60;;
65187;SDS011;51775;51.148;6.950;2023-11-18T09:12:30;4.13;;;1.65;;
65187;SDS011;51775;51.148;6.950;2023-11-18T09:14:55;2.67;;;1.65;;
65187;SDS011;51775;51.148;6.950;2023-11-18T09:17:21;4.50;;;1.85;;
65187;SDS011;51775;51.148;6.950;2023-11-18T09:19:46;2.45;;;1.65;;
65187;SDS011;51775;51.148;6.950;2023-11-18T09:22:11;2.80;;;1.70;;
65187;SDS011;51775;51.148;6.950;2023-11-18T09:24:36;2.97;;;1.70;;
65187;SDS011;51775;51.148;6.950;2023-11-18T09:27:02;5.05;;;1.58;;
65187;SDS011;51775;51.148;6.950;2023-11-18T09:29:27;2.58;;;1.70;;
65187;SDS011;51775;51.148;6.950;2023-11-18T09:31:52;5.05;;;1.73;;
65187;SDS011;51775;51.148;6.950;2023-11-18T09:34:18;4.88;;;1.70;;
65187;SDS011;51775;51.148;6.950;2023-11-18T09:36:43;4.13;;;1.55;;
65187;SDS011;51775;51.148;6.950;2023-11-18T09:39:09;2.22;;;1.40;;
65187;SDS011;51775;51.148;6.950;2023-11-18T09:41:35;3.38;;;1.50;;
65187;SDS011;51775;51.148;6.950;2023-11-18T09:44:01;4.93;;;1.80;;
65187;SDS011;51775;51.148;6.950;2023-11-18T09:46:26;2.85;;;1.50;;
65187;SDS011;51775;51.148;6.950;2023-11-18T09:48:52;3.00;;;1.55;;
65187;SDS011;51775;51.148;6.950;2023-11-18T09:51:38;3.60;;;1.60;;
65187;SDS011;51775;51.148;6.950;2023-11-18T09:54:27;2.00;;;1.30;;
65187;SDS011;51775;51.148;6.950;2023-11-18T10:02:01;3.03;;;1.50;;
65187;SDS011;51775;51.148;6.950;2023-11-18T10:04:28;3.00;;;1.50;;
65187;SDS011;51775;51.148;6.950;2023-11-18T10:06:54;2.30;;;1.55;;
65187;SDS011;51775;51.148;6.950;2023-11-18T10:09:19;3.35;;;1.30;;
65187;SDS011;51775;51.148;6.950;2023-11-18T10:11:48;2.33;;;1.50;;
65187;SDS011;51775;51.148;6.950;2023-11-18T10:14:14;3.53;;;1.60;;
65187;SDS011;51775;51.148;6.950;2023-11-18T10:16:40;3.25;;;1.50;;
65187;SDS011;51775;51.148;6.950;2023-11-18T10:19:05;2.30;;;1.50;;
65187;SDS011;51775;51.148;6.950;2023-11-18T10:21:36;3.63;;;1.38;;
65187;SDS011;51775;51.148;6.950;2023-11-18T10:24:02;3.35;;;1.48;;
65187;SDS011;51775;51.148;6.950;2023-11-18T10:26:27;2.47;;;1.60;;
65187;SDS011;51775;51.148;6.950;2023-11-18T10:28:53;2.28;;;1.45;;
65187;SDS011;51775;51.148;6.950;2023-11-18T10:31:18;2.20;;;1.55;;
65187;SDS011;51775;51.148;6.950;2023-11-18T10:33:43;2.20;;;1.30;;
65187;SDS011;51775;51.148;6.950;2023-11-18T10:36:19;3.13;;;1.60;;
65187;SDS011;51775;51.148;6.950;2023-11-18T10:38:46;2.33;;;1.70;;
65187;SDS011;51775;51.148;6.950;2023-11-18T10:41:13;2.30;;;1.55;;
65187;SDS011;51775;51.148;6.950;2023-11-18T10:43:38;2.60;;;1.50;;
65187;SDS011;51775;51.148;6.950;2023-11-18T10:46:07;2.20;;;1.40;;
65187;SDS011;51775;51.148;6.950;2023-11-18T10:48:33;2.30;;;1.60;;
65187;SDS011;51775;51.148;6.950;2023-11-18T10:51:00;2.10;;;1.40;;
65187;SDS011;51775;51.148;6.950;2023-11-18T10:53:25;2.55;;;1.55;;
65187;SDS011;51775;51.148;6.950;2023-11-18T10:55:51;2.70;;;1.40;;
65187;SDS011;51775;51.148;6.950;2023-11-18T10:58:16;1.95;;;1.40;;
65187;SDS011;51775;51.148;6.950;2023-11-18T11:00:48;1.90;;;1.38;;
65187;SDS011;51775;51.148;6.950;2023-11-18T11:03:18;2.22;;;1.48;;
65187;SDS011;51775;51.148;6.950;2023-11-18T11:05:43;2.10;;;1.40;;
65187;SDS011;51775;51.148;6.950;2023-11-18T11:08:11;1.90;;;1.30;;
65187;SDS011;51775;51.148;6.950;2023-11-18T11:10:40;2.00;;;1.33;;
65187;SDS011;51775;51.148;6.950;2023-11-18T11:13:05;2.20;;;1.40;;
65187;SDS011;51775;51.148;6.950;2023-11-18T11:15:32;2.42;;;1.50;;
65187;SDS011;51775;51.148;6.950;2023-11-18T11:18:07;2.00;;;1.30;;
65187;SDS011;51775;51.148;6.950;2023-11-18T11:20:42;2.08;;;1.42;;
65187;SDS011;51775;51.148;6.950;2023-11-18T11:28:46;2.33;;;1.45;;
65187;SDS011;51775;51.148;6.950;2023-11-18T11:33:57;1.97;;;1.33;;
65187;SDS011;51775;51.148;6.950;2023-11-18T11:36:26;2.65;;;1.30;;
65187;SDS011;51775;51.148;6.950;2023-11-18T11:38:59;1.98;;;1.20;;
65187;SDS011;51775;51.148;6.950;2023-11-18T11:41:24;1.60;;;1.20;;
65187;SDS011;51775;51.148;6.950;2023-11-18T11:43:50;1.55;;;1.02;;
65187;SDS011;51775;51.148;6.950;2023-11-18T11:46:16;2.28;;;1.55;;
65187;SDS011;51775;51.148;6.950;2023-11-18T11:48:42;2.30;;;1.60;;
65187;SDS011;51775;51.148;6.950;2023-11-18T11:54:09;2.63;;;1.40;;
65187;SDS011;51775;51.148;6.950;2023-11-18T11:56:43;2.00;;;1.40;;
65187;SDS011;51775;51.148;6.950;2023-11-18T11:59:10;1.92;;;1.30;;
65187;SDS011;51775;51.148;6.950;2023-11-18T12:01:35;1.70;;;1.20;;
65187;SDS011;51775;51.148;6.950;2023-11-18T12:04:08;1.75;;;1.25;;
65187;SDS011;51775;51.148;6.950;2023-11-18T12:06:34;1.85;;;1.30;;
65187;SDS011;51775;51.148;6.950;2023-11-18T12:09:08;1.73;;;1.20;;
65187;SDS011;51775;51.148;6.950;2023-11-18T12:11:37;1.65;;;1.20;;
65187;SDS011;51775;51.148;6.950;2023-11-18T12:14:06;2.35;;;1.33;;
65187;SDS011;51775;51.148;6.950;2023-11-18T12:19:30;1.88;;;1.30;;
65187;SDS011;51775;51.148;6.950;2023-11-18T12:21:56;2.20;;;1.30;;
65187;SDS011;51775;51.148;6.950;2023-11-18T12:24:22;2.00;;;1.20;;
65187;SDS011;51775;51.148;6.950;2023-11-18T12:26:47;2.35;;;1.20;;
65187;SDS011;51775;51.148;6.950;2023-11-18T12:29:30;3.20;;;1.20;;
65187;SDS011;51775;51.148;6.950;2023-11-18T12:31:55;3.00;;;1.40;;
65187;SDS011;51775;51.148;6.950;2023-11-18T12:34:21;2.00;;;1.23;;
65187;SDS011;51775;51.148;6.950;2023-11-18T12:39:57;2.80;;;1.30;;
65187;SDS011;51775;51.148;6.950;2023-11-18T12:43:16;3.28;;;1.40;;
65187;SDS011;51775;51.148;6.950;2023-11-18T12:47:55;2.42;;;1.50;;
65187;SDS011;51775;51.148;6.950;2023-11-18T12:50:21;2.42;;;1.50;;
65187;SDS011;51775;51.148;6.950;2023-11-18T12:52:47;2.17;;;1.50;;
65187;SDS011;51775;51.148;6.950;2023-11-18T12:55:12;3.10;;;1.52;;
65187;SDS011;51775;51.148;6.950;2023-11-18T12:57:45;2.33;;;1.40;;
65187;SDS011;51775;51.148;6.950;2023-11-18T13:00:11;2.33;;;1.35;;
65187;SDS011;51775;51.148;6.950;2023-11-18T13:02:37;2.20;;;1.33;;
65187;SDS011;51775;51.148;6.950;2023-11-18T13:05:05;2.45;;;1.30;;
65187;SDS011;51775;51.148;6.950;2023-11-18T13:07:30;2.20;;;1.30;;
65187;SDS011;51775;51.148;6.950;2023-11-18T13:09:56;3.53;;;1.40;;
65187;SDS011;51775;51.148;6.950;2023-11-18T13:12:21;3.25;;;1.40;;
65187;SDS011;51775;51.148;6.950;2023-11-18T13:14:47;2.08;;;1.27;;
65187;SDS011;51775;51.148;6.950;2023-11-18T13:17:13;2.03;;;1.20;;
65187;SDS011;51775;51.148;6.950;2023-11-18T13:19:39;2.53;;;1.38;;
65187;SDS011;51775;51.148;6.950;2023-11-18T13:22:06;2.03;;;1.40;;
65187;SDS011;51775;51.148;6.950;2023-11-18T13:24:32;5.30;;;1.40;;
65187;SDS011;51775;51.148;6.950;2023-11-18T13:26:58;2.35;;;1.40;;
65187;SDS011;51775;51.148;6.950;2023-11-18T13:29:25;2.67;;;1.35;;
65187;SDS011;51775;51.148;6.950;2023-11-18T13:31:51;2.88;;;1.30;;
65187;SDS011;51775;51.148;6.950;2023-11-18T13:34:17;2.20;;;1.38;;
65187;SDS011;51775;51.148;6.950;2023-11-18T13:36:43;2.50;;;1.40;;
65187;SDS011;51775;51.148;6.950;2023-11-18T13:39:15;1.92;;;1.20;;
65187;SDS011;51775;51.148;6.950;2023-11-18T13:41:49;2.13;;;1.30;;
65187;SDS011;51775;51.148;6.950;2023-11-18T13:44:34;3.08;;;1.17;;
65187;SDS011;51775;51.148;6.950;2023-11-18T13:47:00;2.17;;;1.20;;
65187;SDS011;51775;51.148;6.950;2023-11-18T13:49:28;1.88;;;1.23;;
65187;SDS011;51775;51.148;6.950;2023-11-18T13:51:54;4.03;;;1.20;;
65187;SDS011;51775;51.148;6.950;2023-11-18T13:54:20;1.73;;;1.00;;
65187;SDS011;51775;51.148;6.950;2023-11-18T13:56:45;2.22;;;1.33;;
65187;SDS011;51775;51.148;6.950;2023-11-18T13:59:10;1.83;;;1.10;;
65187;SDS011;51775;51.148;6.950;2023-11-18T14:01:36;2.00;;;1.20;;
65187;SDS011;51775;51.148;6.950;2023-11-18T14:04:01;2.03;;;1.35;;
65187;SDS011;51775;51.148;6.950;2023-11-18T14:06:26;1.92;;;1.20;;
65187;SDS011;51775;51.148;6.950;2023-11-18T14:08:52;1.73;;;1.10;;
65187;SDS011;51775;51.148;6.950;2023-11-18T14:11:17;2.17;;;1.10;;
65187;SDS011;51775;51.148;6.950;2023-11-18T14:13:43;2.15;;;1.23;;
65187;SDS011;51775;51.148;6.950;2023-11-18T14:16:08;1.98;;;1.10;;
65187;SDS011;51775;51.148;6.950;2023-11-18T14:18:34;1.58;;;1.00;;
65187;SDS011;51775;51.148;6.950;2023-11-18T14:20:59;1.45;;;1.00;;
65187;SDS011;51775;51.148;6.950;2023-11-18T14:23:24;1.50;;;1.00;;
65187;SDS011;51775;51.148;6.950;2023-11-18T14:25:49;1.73;;;1.00;;
65187;SDS011;51775;51.148;6.950;2023-11-18T14:28:15;1.80;;;1.10;;
65187;SDS011;51775;51.148;6.950;2023-11-18T14:30:40;2.53;;;1.20;;
65187;SDS011;51775;51.148;6.950;2023-11-18T14:33:06;1.90;;;1.08;;
65187;SDS011;51775;51.148;6.950;2023-11-18T14:35:31;1.63;;;1.00;;
65187;SDS011;51775;51.148;6.950;2023-11-18T14:37:56;2.20;;;1.27;;
65187;SDS011;51775;51.148;6.950;2023-11-18T14:40:22;2.30;;;1.30;;
65187;SDS011;51775;51.148;6.950;2023-11-18T14:42:47;1.70;;;1.13;;
65187;SDS011;51775;51.148;6.950;2023-11-18T14:45:14;1.50;;;1.00;;
65187;SDS011;51775;51.148;6.950;2023-11-18T14:47:40;1.60;;;1.00;;
65187;SDS011;51775;51.148;6.950;2023-11-18T14:50:06;4.43;;;1.02;;
65187;SDS011;51775;51.148;6.950;2023-11-18T14:52:32;1.80;;;1.20;;
65187;SDS011;51775;51.148;6.950;2023-11-18T14:54:57;2.15;;;1.20;;
65187;SDS011;51775;51.148;6.950;2023-11-18T14:57:22;1.73;;;1.20;;
65187;SDS011;51775;51.148;6.950;2023-11-18T14:59:47;2.05;;;1.30;;
65187;SDS011;51775;51.148;6.950;2023-11-18T15:02:13;2.03;;;1.17;;
65187;SDS011;51775;51.148;6.950;2023-11-18T15:04:38;2.33;;;1.30;;
65187;SDS011;51775;51.148;6.950;2023-11-18T15:07:03;2.03;;;1.20;;
65187;SDS011;51775;51.148;6.950;2023-11-18T15:09:29;1.90;;;1.20;;
65187;SDS011;51775;51.148;6.950;2023-11-18T15:11:55;1.85;;;1.10;;